createdAt,value
2018-12-22T00:01:27.340Z,0.73
2018-12-22T00:03:56.060Z,1.23
2018-12-22T00:06:24.820Z,0.93
2018-12-22T00:08:53.400Z,1.10
2018-12-22T00:11:22.132Z,1.00
2018-12-22T00:13:51.057Z,0.90
2018-12-22T00:16:19.893Z,1.00
2018-12-22T00:18:48.782Z,1.10
2018-12-22T00:21:17.955Z,1.00
2018-12-22T00:23:47.356Z,1.10
2018-12-22T00:26:16.013Z,0.80
2018-12-22T00:28:45.126Z,1.27
2018-12-22T00:31:13.967Z,0.93
2018-12-22T00:33:42.761Z,1.10
2018-12-22T00:36:11.500Z,1.20
2018-12-22T00:38:40.167Z,1.37
2018-12-22T00:41:08.878Z,1.10
2018-12-22T00:43:37.552Z,1.60
2018-12-22T00:46:06.200Z,1.03
2018-12-22T00:48:35.075Z,1.10
2018-12-22T00:51:03.828Z,1.60
2018-12-22T00:53:32.700Z,1.40
2018-12-22T00:56:01.603Z,1.00
2018-12-22T00:58:30.797Z,1.30
2018-12-22T01:00:59.898Z,1.27
2018-12-22T01:03:28.547Z,1.13
2018-12-22T01:05:57.410Z,1.13
2018-12-22T01:08:26.131Z,1.13
2018-12-22T01:10:54.835Z,1.30
2018-12-22T01:13:23.523Z,1.20
2018-12-22T01:15:52.136Z,1.10
2018-12-22T01:18:20.727Z,1.20
2018-12-22T01:20:49.503Z,1.30
2018-12-22T01:23:18.076Z,1.10
2018-12-22T01:25:46.636Z,1.43
2018-12-22T01:28:15.132Z,1.37
2018-12-22T01:30:43.667Z,1.43
2018-12-22T01:33:12.211Z,0.97
2018-12-22T01:35:40.731Z,1.23
2018-12-22T01:38:09.314Z,1.23
2018-12-22T01:40:37.922Z,1.20
2018-12-22T01:43:06.891Z,1.30
2018-12-22T01:45:35.404Z,1.20
2018-12-22T01:48:04.059Z,1.10
2018-12-22T01:50:32.614Z,1.20
2018-12-22T01:53:01.137Z,1.27
2018-12-22T01:55:29.695Z,1.40
2018-12-22T01:57:58.200Z,1.20
2018-12-22T02:00:26.730Z,1.00
2018-12-22T02:02:55.304Z,1.20
2018-12-22T02:05:23.806Z,1.10
2018-12-22T02:07:52.358Z,1.00
2018-12-22T02:10:20.916Z,1.17
2018-12-22T02:12:49.850Z,1.03
2018-12-22T02:15:18.374Z,1.30
2018-12-22T02:17:47.312Z,1.00
2018-12-22T02:20:15.832Z,0.90
2018-12-22T02:22:44.426Z,1.30
2018-12-22T02:25:13.032Z,1.30
2018-12-22T02:27:41.768Z,1.20
2018-12-22T02:30:10.332Z,1.10
2018-12-22T02:32:38.916Z,1.00
2018-12-22T02:35:07.455Z,1.17
2018-12-22T02:37:36.111Z,1.00
2018-12-22T02:40:05.926Z,1.00
2018-12-22T02:42:34.524Z,1.00
2018-12-22T02:45:03.179Z,1.00
2018-12-22T02:47:31.676Z,0.77
2018-12-22T02:50:00.243Z,1.60
2018-12-22T02:52:28.817Z,0.83
2018-12-22T02:54:57.343Z,1.17
2018-12-22T02:57:25.892Z,0.90
2018-12-22T02:59:54.618Z,1.00
2018-12-22T03:02:23.166Z,1.17
2018-12-22T03:04:51.803Z,0.80
2018-12-22T03:07:20.499Z,0.97
2018-12-22T03:09:49.397Z,1.03
2018-12-22T03:12:18.148Z,1.00
2018-12-22T03:14:46.701Z,1.23
2018-12-22T03:17:15.279Z,1.17
2018-12-22T03:19:43.890Z,1.20
2018-12-22T03:22:12.397Z,1.43
2018-12-22T03:24:40.916Z,1.00
2018-12-22T03:27:09.415Z,1.30
2018-12-22T03:29:37.901Z,1.40
2018-12-22T03:32:06.728Z,1.20
2018-12-22T03:34:35.238Z,1.07
2018-12-22T03:37:03.755Z,1.73
2018-12-22T03:39:32.272Z,1.40
2018-12-22T03:42:00.815Z,1.30
2018-12-22T03:44:29.327Z,1.50
2018-12-22T03:46:57.877Z,1.67
2018-12-22T03:49:26.403Z,1.73
2018-12-22T03:51:54.935Z,1.50
2018-12-22T03:54:23.474Z,1.83
2018-12-22T03:56:52.055Z,1.50
2018-12-22T03:59:25.034Z,1.70
2018-12-22T04:01:51.218Z,1.67
2018-12-22T04:04:19.764Z,1.50
2018-12-22T04:06:48.384Z,1.37
2018-12-22T04:09:16.927Z,1.67
2018-12-22T04:11:45.437Z,1.90
2018-12-22T04:14:14.064Z,1.57
2018-12-22T04:16:42.614Z,1.70
2018-12-22T04:19:11.442Z,1.60
2018-12-22T04:21:40.102Z,1.50
2018-12-22T04:24:08.592Z,1.60
2018-12-22T04:26:37.410Z,1.77
2018-12-22T04:29:05.975Z,1.70
2018-12-22T04:31:34.653Z,1.67
2018-12-22T04:34:03.253Z,1.70
2018-12-22T04:36:31.895Z,1.27
2018-12-22T04:39:00.450Z,1.50
2018-12-22T04:41:29.020Z,1.87
2018-12-22T04:43:57.611Z,1.50
2018-12-22T04:46:26.275Z,1.60
2018-12-22T04:48:55.130Z,1.83
2018-12-22T04:51:24.028Z,1.60
2018-12-22T04:53:52.889Z,1.60
2018-12-22T04:56:21.442Z,1.33
2018-12-22T04:58:50.144Z,2.30
2018-12-22T05:01:18.822Z,1.33
2018-12-22T05:03:47.460Z,1.33
2018-12-22T05:06:16.167Z,1.60
2018-12-22T05:08:44.700Z,1.23
2018-12-22T05:11:13.228Z,1.67
2018-12-22T05:13:41.875Z,1.83
2018-12-22T05:16:14.571Z,1.30
2018-12-22T05:18:44.251Z,1.27
2018-12-22T05:21:12.814Z,1.30
2018-12-22T05:23:41.658Z,1.10
2018-12-22T05:26:10.521Z,1.27
2018-12-22T05:28:39.052Z,1.10
2018-12-22T05:31:07.711Z,1.03
2018-12-22T05:33:36.299Z,1.00
2018-12-22T05:36:05.291Z,1.07
2018-12-22T05:38:33.925Z,0.83
2018-12-22T05:41:02.512Z,0.80
2018-12-22T05:43:31.040Z,1.00
2018-12-22T05:45:59.852Z,1.03
2018-12-22T05:48:28.380Z,1.00
2018-12-22T05:50:57.067Z,0.90
2018-12-22T05:53:25.573Z,0.97
2018-12-22T05:55:54.399Z,0.70
2018-12-22T05:58:22.910Z,0.70
2018-12-22T06:00:51.638Z,1.00
2018-12-22T06:03:20.185Z,0.77
2018-12-22T06:05:48.821Z,0.70
2018-12-22T06:08:17.427Z,0.60
2018-12-22T06:10:46.104Z,0.80
2018-12-22T06:13:14.659Z,0.80
2018-12-22T06:15:43.184Z,1.10
2018-12-22T06:18:11.768Z,0.70
2018-12-22T06:20:40.347Z,0.90
2018-12-22T06:23:08.870Z,0.50
2018-12-22T06:25:37.386Z,0.50
2018-12-22T06:28:05.974Z,0.70
2018-12-22T06:30:34.517Z,0.70
2018-12-22T06:33:03.471Z,0.60
2018-12-22T06:35:32.059Z,0.60
2018-12-22T06:38:00.581Z,0.50
2018-12-22T06:40:29.245Z,0.50
2018-12-22T06:42:57.790Z,0.60
2018-12-22T06:45:26.351Z,0.63
2018-12-22T06:47:54.904Z,0.60
2018-12-22T06:50:23.486Z,0.73
2018-12-22T06:52:52.177Z,0.40
2018-12-22T06:55:20.818Z,0.60
2018-12-22T06:57:51.290Z,0.53
2018-12-22T07:00:19.943Z,0.73
2018-12-22T07:02:48.566Z,0.50
2018-12-22T07:05:17.124Z,0.50
2018-12-22T07:07:46.115Z,1.27
2018-12-22T07:10:14.780Z,1.10
2018-12-22T07:12:43.386Z,0.70
2018-12-22T07:15:11.983Z,0.87
2018-12-22T07:17:40.788Z,0.53
2018-12-22T07:20:09.379Z,0.67
2018-12-22T07:22:38.244Z,0.97
2018-12-22T07:25:06.900Z,0.60
2018-12-22T07:27:35.422Z,0.63
2018-12-22T07:30:04.646Z,0.78
2018-12-22T07:32:33.130Z,0.50
2018-12-22T07:35:02.135Z,0.77
2018-12-22T07:37:30.683Z,0.70
2018-12-22T07:39:59.370Z,0.93
2018-12-22T07:42:28.022Z,0.80
2018-12-22T07:44:56.622Z,0.70
2018-12-22T07:47:25.166Z,0.77
2018-12-22T07:49:54.150Z,1.07
2018-12-22T07:52:23.224Z,0.80
2018-12-22T07:54:51.771Z,0.90
2018-12-22T07:57:20.258Z,1.02
2018-12-22T07:59:48.814Z,1.17
2018-12-22T08:02:17.351Z,0.90
2018-12-22T08:04:46.025Z,1.00
2018-12-22T08:07:14.591Z,0.90
2018-12-22T08:09:43.173Z,1.17
2018-12-22T08:12:11.815Z,1.10
2018-12-22T08:14:40.366Z,0.83
2018-12-22T08:17:09.188Z,0.87
2018-12-22T08:19:38.241Z,0.67
2018-12-22T08:22:08.509Z,1.17
2018-12-22T08:24:37.354Z,0.70
2018-12-22T08:27:06.928Z,0.70
2018-12-22T08:29:35.389Z,1.17
2018-12-22T08:32:04.097Z,1.20
2018-12-22T08:34:32.873Z,0.80
2018-12-22T08:37:01.449Z,0.70
2018-12-22T08:39:30.094Z,0.70
2018-12-22T08:41:59.003Z,1.00
2018-12-22T08:44:27.543Z,0.93
2018-12-22T08:46:56.070Z,0.90
2018-12-22T08:49:24.620Z,0.90
2018-12-22T08:51:53.101Z,0.60
2018-12-22T08:54:21.686Z,0.90
2018-12-22T08:56:50.203Z,0.97
2018-12-22T08:59:18.788Z,0.73
2018-12-22T09:01:47.380Z,0.90
2018-12-22T09:04:16.290Z,1.57
2018-12-22T09:06:44.840Z,0.70
2018-12-22T09:09:13.778Z,0.60
2018-12-22T09:11:42.427Z,0.80
2018-12-22T09:14:10.963Z,0.70
2018-12-22T09:16:39.569Z,1.10
2018-12-22T09:19:08.126Z,0.97
2018-12-22T09:21:36.665Z,0.63
2018-12-22T09:24:05.274Z,1.03
2018-12-22T09:26:33.813Z,0.90
2018-12-22T09:29:02.372Z,0.90
2018-12-22T09:31:33.070Z,0.80
2018-12-22T09:34:01.947Z,0.80
2018-12-22T09:36:30.493Z,1.00
2018-12-22T09:38:59.031Z,1.03
2018-12-22T09:41:27.625Z,0.80
2018-12-22T09:43:56.233Z,1.10
2018-12-22T09:46:24.788Z,0.80
2018-12-22T09:48:53.381Z,0.90
2018-12-22T09:51:21.977Z,0.93
2018-12-22T09:53:50.869Z,0.80
2018-12-22T09:56:19.512Z,0.57
2018-12-22T09:58:48.060Z,0.60
2018-12-22T10:01:16.711Z,0.80
2018-12-22T10:03:45.410Z,0.50
2018-12-22T10:06:14.393Z,0.50
2018-12-22T10:08:42.911Z,0.50
2018-12-22T10:11:11.522Z,0.50
2018-12-22T10:13:40.733Z,0.70
2018-12-22T10:16:09.317Z,0.50
2018-12-22T10:18:37.959Z,0.60
2018-12-22T10:21:06.504Z,0.43
2018-12-22T10:23:35.088Z,0.60
2018-12-22T10:26:03.665Z,0.57
2018-12-22T10:28:32.190Z,0.50
2018-12-22T10:31:00.721Z,0.43
2018-12-22T10:33:29.266Z,0.70
2018-12-22T10:35:58.021Z,0.70
2018-12-22T10:38:26.811Z,1.07
2018-12-22T10:40:55.455Z,1.70
2018-12-22T10:43:24.062Z,1.20
2018-12-22T10:45:52.550Z,1.40
2018-12-22T10:48:21.255Z,1.13
2018-12-22T10:50:49.920Z,1.30
2018-12-22T10:53:18.500Z,1.10
2018-12-22T10:55:47.027Z,1.33
2018-12-22T10:58:16.212Z,1.03
2018-12-22T11:00:44.922Z,1.60
2018-12-22T11:03:13.430Z,1.13
2018-12-22T11:05:42.027Z,1.23
2018-12-22T11:08:10.606Z,1.80
2018-12-22T11:10:39.210Z,1.30
2018-12-22T11:13:07.831Z,1.30
2018-12-22T11:15:37.019Z,1.20
2018-12-22T11:18:05.628Z,1.40
2018-12-22T11:20:34.209Z,1.27
2018-12-22T11:23:02.832Z,1.20
2018-12-22T11:25:31.431Z,1.40
2018-12-22T11:27:59.961Z,1.23
2018-12-22T11:30:32.973Z,1.30
2018-12-22T11:33:03.350Z,1.70
2018-12-22T11:35:32.112Z,1.10
2018-12-22T11:38:00.664Z,1.30
2018-12-22T11:40:29.305Z,1.23
2018-12-22T11:42:57.865Z,1.37
2018-12-22T11:45:26.711Z,1.20
2018-12-22T11:49:16.010Z,1.50
2018-12-22T11:51:44.611Z,1.20
2018-12-22T11:54:13.287Z,1.27
2018-12-22T11:56:41.878Z,1.10
2018-12-22T11:59:10.544Z,1.50
2018-12-22T12:01:43.547Z,1.30
2018-12-22T12:04:09.802Z,1.53
2018-12-22T12:06:38.312Z,1.13
2018-12-22T12:09:07.579Z,1.10
2018-12-22T12:11:36.417Z,1.27
2018-12-22T12:14:05.002Z,1.53
2018-12-22T12:16:41.860Z,1.13
2018-12-22T12:19:16.245Z,0.90
2018-12-22T12:21:45.013Z,1.00
2018-12-22T12:24:13.603Z,1.07
2018-12-22T12:26:42.146Z,1.13
2018-12-22T12:29:10.959Z,1.10
2018-12-22T12:31:39.650Z,1.20
2018-12-22T12:34:09.619Z,1.33
2018-12-22T12:36:38.220Z,1.40
2018-12-22T12:39:11.173Z,1.10
2018-12-22T12:41:39.831Z,1.50
2018-12-22T12:44:08.371Z,1.70
2018-12-22T12:46:53.115Z,1.30
2018-12-22T12:49:22.671Z,1.13
2018-12-22T12:51:51.403Z,1.10
2018-12-22T12:54:21.892Z,1.30
2018-12-22T12:56:55.237Z,1.47
2018-12-22T12:59:24.524Z,1.20
2018-12-22T13:02:00.745Z,1.37
2018-12-22T13:04:23.649Z,1.82
2018-12-22T13:06:53.208Z,1.00
2018-12-22T13:09:21.915Z,1.00
2018-12-22T13:11:52.201Z,1.90
2018-12-22T13:14:23.070Z,1.20
2018-12-22T13:16:52.140Z,1.67
2018-12-22T13:19:20.623Z,1.63
2018-12-22T13:21:52.665Z,1.80
2018-12-22T13:24:21.631Z,1.60
2018-12-22T13:26:51.035Z,1.40
2018-12-22T13:29:20.010Z,1.27
2018-12-22T13:31:48.701Z,1.40
2018-12-22T13:34:17.240Z,1.40
2018-12-22T13:36:46.133Z,1.62
2018-12-22T13:39:20.288Z,1.50
2018-12-22T13:41:48.856Z,1.57
2018-12-22T13:44:17.535Z,1.43
2018-12-22T13:46:47.041Z,1.80
2018-12-22T13:49:15.750Z,1.20
2018-12-22T13:51:45.787Z,1.80
2018-12-22T13:54:17.121Z,1.50
2018-12-22T13:56:45.655Z,2.00
2018-12-22T13:59:14.245Z,1.53
2018-12-22T14:01:46.984Z,1.43
2018-12-22T14:04:16.245Z,1.67
2018-12-22T14:06:46.381Z,1.87
2018-12-22T14:09:15.001Z,1.77
2018-12-22T14:11:44.249Z,1.80
2018-12-22T14:14:18.267Z,1.30
2018-12-22T14:17:31.180Z,1.73
2018-12-22T14:20:10.350Z,1.47
2018-12-22T14:22:38.988Z,1.87
2018-12-22T14:25:13.554Z,1.20
2018-12-22T14:27:42.524Z,1.30
2018-12-22T14:30:12.400Z,1.40
2018-12-22T14:32:40.979Z,1.60
2018-12-22T14:35:16.342Z,1.40
2018-12-22T14:37:44.853Z,2.03
2018-12-22T14:40:13.401Z,1.60
2018-12-22T14:42:42.075Z,1.60
2018-12-22T14:45:12.109Z,1.87
2018-12-22T14:47:40.907Z,1.70
2018-12-22T14:50:11.116Z,1.70
2018-12-22T14:52:39.711Z,1.75
2018-12-22T14:55:09.005Z,1.60
2018-12-22T14:57:52.167Z,1.77
2018-12-22T15:00:21.032Z,1.10
2018-12-22T15:02:49.722Z,1.47
2018-12-22T15:05:18.236Z,1.63
2018-12-22T15:07:46.970Z,1.37
2018-12-22T15:10:15.595Z,2.13
2018-12-22T15:12:44.105Z,1.90
2018-12-22T15:16:05.357Z,1.60
2018-12-22T15:18:33.962Z,1.70
2018-12-22T15:21:02.542Z,1.70
2018-12-22T15:23:31.235Z,1.33
2018-12-22T15:25:59.774Z,1.53
2018-12-22T15:28:28.300Z,1.93
2018-12-22T15:30:56.828Z,1.80
2018-12-22T15:33:25.434Z,1.53
2018-12-22T15:35:54.074Z,1.33
2018-12-22T15:38:22.687Z,1.60
2018-12-22T15:40:51.275Z,2.03
2018-12-22T15:43:20.058Z,1.50
2018-12-22T15:45:48.637Z,1.30
2018-12-22T15:48:18.594Z,1.50
2018-12-22T15:50:48.464Z,1.70
2018-12-22T15:53:17.045Z,1.47
2018-12-22T15:55:45.763Z,1.97
2018-12-22T15:58:14.300Z,1.27
2018-12-22T16:00:42.875Z,1.60
2018-12-22T16:03:11.884Z,1.40
2018-12-22T16:05:40.436Z,1.50
2018-12-22T16:08:09.027Z,2.03
2018-12-22T16:10:37.647Z,1.53
2018-12-22T16:13:06.351Z,1.40
2018-12-22T16:15:35.231Z,1.63
2018-12-22T16:18:03.942Z,1.57
2018-12-22T16:20:32.876Z,1.50
2018-12-22T16:23:03.329Z,1.47
2018-12-22T16:25:32.278Z,1.80
2018-12-22T16:28:07.905Z,1.87
2018-12-22T16:30:44.866Z,1.97
2018-12-22T16:33:13.605Z,1.57
2018-12-22T16:35:42.117Z,1.70
2018-12-22T16:38:10.698Z,1.67
2018-12-22T16:40:39.295Z,1.97
2018-12-22T16:43:11.064Z,1.97
2018-12-22T16:45:42.752Z,1.90
2018-12-22T16:48:11.342Z,1.90
2018-12-22T16:50:41.211Z,1.57
2018-12-22T16:53:09.763Z,1.90
2018-12-22T16:55:38.292Z,1.63
2018-12-22T16:58:10.920Z,1.60
2018-12-22T17:00:45.608Z,2.10
2018-12-22T17:03:14.193Z,2.13
2018-12-22T17:05:42.884Z,1.80
2018-12-22T17:08:11.503Z,2.10
2018-12-22T17:10:43.037Z,1.67
2018-12-22T17:13:13.335Z,2.20
2018-12-22T17:15:47.186Z,2.03
2018-12-22T17:18:15.720Z,1.60
2018-12-22T17:20:44.377Z,2.07
2018-12-22T17:23:24.015Z,2.23
2018-12-22T17:25:56.134Z,1.60
2018-12-22T17:28:28.502Z,1.83
2018-12-22T17:30:55.398Z,1.63
2018-12-22T17:33:23.997Z,1.60
2018-12-22T17:35:52.523Z,2.33
2018-12-22T17:38:21.045Z,2.10
2018-12-22T17:40:50.144Z,2.43
2018-12-22T17:43:18.634Z,1.93
2018-12-22T17:45:47.226Z,2.43
2018-12-22T17:48:15.875Z,2.13
2018-12-22T17:50:44.459Z,2.13
2018-12-22T17:53:13.104Z,2.40
2018-12-22T17:55:41.867Z,2.03
2018-12-22T17:58:10.522Z,1.97
2018-12-22T18:00:39.108Z,2.00
2018-12-22T18:03:09.670Z,2.40
2018-12-22T18:05:39.106Z,3.53
2018-12-22T18:08:07.641Z,3.17
2018-12-22T18:10:36.158Z,2.53
2018-12-22T18:13:05.002Z,2.80
2018-12-22T18:15:33.584Z,2.87
2018-12-22T18:18:02.121Z,2.83
2018-12-22T18:20:30.720Z,3.13
2018-12-22T18:23:00.633Z,2.83
2018-12-22T18:25:33.975Z,2.80
2018-12-22T18:28:08.535Z,2.70
2018-12-22T18:30:37.149Z,2.40
2018-12-22T18:33:05.707Z,2.53
2018-12-22T18:35:34.333Z,2.03
2018-12-22T18:38:03.013Z,2.67
2018-12-22T18:40:31.972Z,2.30
2018-12-22T18:43:00.535Z,2.57
2018-12-22T18:45:29.076Z,2.33
2018-12-22T18:47:57.660Z,2.37
2018-12-22T18:50:27.442Z,3.20
2018-12-22T18:52:56.032Z,2.30
2018-12-22T18:55:24.629Z,2.70
2018-12-22T18:57:55.251Z,2.53
2018-12-22T19:00:24.235Z,2.47
2018-12-22T19:02:53.038Z,2.17
2018-12-22T19:05:22.806Z,2.20
2018-12-22T19:07:54.200Z,2.30
2018-12-22T19:10:29.998Z,2.43
2018-12-22T19:12:58.543Z,2.27
2018-12-22T19:15:27.247Z,2.07
2018-12-22T19:17:55.871Z,2.50
2018-12-22T19:20:28.611Z,2.40
2018-12-22T19:22:57.240Z,2.77
2018-12-22T19:25:26.500Z,2.80
2018-12-22T19:27:55.079Z,2.30
2018-12-22T19:30:23.919Z,2.50
2018-12-22T19:32:52.593Z,3.53
2018-12-22T19:35:21.272Z,2.60
2018-12-22T19:37:49.941Z,2.87
2018-12-22T19:40:18.746Z,3.30
2018-12-22T19:42:47.360Z,2.53
2018-12-22T19:45:15.996Z,2.63
2018-12-22T19:47:44.699Z,2.80
2018-12-22T19:50:13.338Z,2.53
2018-12-22T19:52:41.912Z,2.90
2018-12-22T19:55:11.672Z,2.47
2018-12-22T19:57:40.194Z,2.67
2018-12-22T20:00:08.902Z,2.50
2018-12-22T20:02:37.528Z,2.67
2018-12-22T20:05:06.706Z,2.30
2018-12-22T20:07:35.415Z,2.20
2018-12-22T20:10:04.226Z,2.40
2018-12-22T20:12:32.812Z,2.50
2018-12-22T20:15:01.394Z,2.33
2018-12-22T20:17:29.978Z,2.03
2018-12-22T20:19:58.526Z,2.70
2018-12-22T20:22:27.043Z,2.90
2018-12-22T20:24:55.612Z,2.87
2018-12-22T20:27:24.338Z,2.80
2018-12-22T20:29:53.369Z,2.63
2018-12-22T20:32:21.856Z,2.73
2018-12-22T20:34:50.397Z,2.70
2018-12-22T20:37:19.107Z,3.40
2018-12-22T20:39:47.623Z,2.53
2018-12-22T20:42:16.591Z,3.00
2018-12-22T20:44:45.201Z,3.00
2018-12-22T20:47:13.782Z,2.13
2018-12-22T20:49:42.480Z,2.70
2018-12-22T20:52:11.245Z,2.50
2018-12-22T20:54:39.751Z,2.57
2018-12-22T20:57:08.409Z,2.63
2018-12-22T20:59:37.005Z,2.80
2018-12-22T21:02:05.781Z,2.43
2018-12-22T21:04:34.915Z,2.60
2018-12-22T21:07:03.678Z,2.93
2018-12-22T21:09:32.250Z,2.43
2018-12-22T21:12:00.842Z,2.73
2018-12-22T21:14:29.485Z,2.83
2018-12-22T21:16:58.067Z,2.67
2018-12-22T21:19:26.696Z,2.93
2018-12-22T21:21:55.267Z,3.20
2018-12-22T21:24:24.054Z,2.70
2018-12-22T21:26:52.764Z,2.63
2018-12-22T21:29:21.340Z,3.43
2018-12-22T21:31:50.286Z,3.40
2018-12-22T21:34:19.274Z,3.00
2018-12-22T21:36:48.091Z,2.77
2018-12-22T21:39:17.356Z,2.73
2018-12-22T21:41:46.997Z,3.07
2018-12-22T21:44:16.585Z,2.50
2018-12-22T21:46:47.080Z,2.50
2018-12-22T21:49:15.967Z,2.30
2018-12-22T21:51:45.114Z,2.60
2018-12-22T21:54:13.736Z,2.43
2018-12-22T21:56:42.292Z,3.30
2018-12-22T21:59:11.067Z,2.50
2018-12-22T22:01:39.611Z,3.03
2018-12-22T22:04:08.156Z,3.23
2018-12-22T22:06:37.001Z,2.70
2018-12-22T22:09:06.486Z,2.87
2018-12-22T22:11:35.310Z,2.60
2018-12-22T22:14:03.875Z,3.13
2018-12-22T22:16:32.694Z,2.80
2018-12-22T22:19:01.502Z,2.90
2018-12-22T22:21:30.037Z,3.00
2018-12-22T22:23:58.561Z,2.83
2018-12-22T22:26:27.366Z,2.80
2018-12-22T22:28:56.045Z,2.97
2018-12-22T22:31:24.892Z,2.90
2018-12-22T22:33:53.653Z,2.53
2018-12-22T22:36:22.218Z,2.90
2018-12-22T22:38:50.854Z,3.20
2018-12-22T22:41:19.528Z,3.27
2018-12-22T22:43:48.062Z,2.47
2018-12-22T22:46:16.707Z,3.23
2018-12-22T22:48:45.275Z,2.43
2018-12-22T22:51:13.854Z,2.80
2018-12-22T22:53:42.707Z,2.77
2018-12-22T22:56:11.340Z,2.50
2018-12-22T22:58:39.897Z,2.97
2018-12-22T23:01:08.682Z,2.60
2018-12-22T23:03:37.335Z,2.73
2018-12-22T23:06:06.048Z,3.60
2018-12-22T23:08:34.622Z,3.20
2018-12-22T23:11:03.176Z,2.70
2018-12-22T23:13:31.882Z,3.17
2018-12-22T23:16:00.470Z,2.90
2018-12-22T23:18:29.282Z,2.80
2018-12-22T23:20:58.367Z,2.40
2018-12-22T23:23:27.152Z,2.60
2018-12-22T23:25:55.704Z,3.13
2018-12-22T23:28:24.241Z,3.00
2018-12-22T23:30:52.824Z,2.70
2018-12-22T23:33:21.366Z,2.50
2018-12-22T23:35:49.941Z,2.17
2018-12-22T23:38:18.536Z,2.60
2018-12-22T23:40:47.092Z,2.50
2018-12-22T23:43:15.675Z,2.30
2018-12-22T23:45:44.311Z,2.37
2018-12-22T23:48:13.210Z,2.40
2018-12-22T23:50:42.040Z,3.07
2018-12-22T23:53:11.023Z,2.60
2018-12-22T23:55:39.571Z,2.47
2018-12-22T23:58:08.079Z,3.63
